Terminal Aerodrome Forecast
Issued by NWS

Home | Current Version | Previous Version | Text Only | Print | Product List | Glossary On
Versions: 1 2 3 4 5 6 7 8 9 10 11 12 13 14 15 16 17 18 19 20 21 22 23 24 25 26
000
FTUS44 KHGX 212058 AAA
TAFLBX
TAF AMD
KLBX 212058Z 2121/2218 18020G28KT P6SM VCTS OVC013CB
      TEMPO 2121/2123 18007KT 3SM -SHRA SCT005 OVC012
     FM212300 35007KT 3SM -RA BR VCTS OVC007CB
      TEMPO 2123/2203 2SM SHRA OVC004
     FM220300 06007KT 2SM -RA BR VCSH OVC004
     FM220600 04006KT 1SM BR OVC003
     FM221600 VRB04KT 3SM -RA BR OVC005=

USA.gov is the U.S. government's official web portal to all federal, state and local government web resources and services.